Time;durP1;ratioP1;P1;durP2;ratioP2;P2;SDS_P1;SDS_P2;PMS_P1;PMS_P2;Temp;Humidity;BMP_temperature;BMP_pressure;BME280_temperature;BME280_humidity;BME280_pressure;Samples;Min_cycle;Max_cycle;Signal;HPM_P1;HPM_P2
2022/01/01 00:01:42;;;;;;;58.97;39.78;;;;;;;14.33;59.06;101068.88;5075048;28;20477;-68
2022/01/01 00:04:09;;;;;;;75.97;45.75;;;;;;;14.09;59.59;101062.56;5074812;28;20106;-68
2022/01/01 00:06:35;;;;;;;90.82;62.08;;;;;;;13.67;60.43;101052.06;5075222;28;20052;-68
2022/01/01 00:09:03;;;;;;;50.08;32.13;;;;;;;13.85;60.20;101059.94;5075285;28;20131;-68
2022/01/01 00:11:30;;;;;;;54.20;34.17;;;;;;;13.64;60.40;101057.78;5075381;28;20459;-68
2022/01/01 00:13:56;;;;;;;50.75;33.08;;;;;;;14.29;58.91;101053.03;5075292;28;20071;-68
2022/01/01 00:16:27;;;;;;;45.90;30.97;;;;;;;13.80;60.10;101063.16;5074277;28;20482;-68
2022/01/01 00:18:53;;;;;;;38.90;27.27;;;;;;;14.11;59.63;101076.69;5075171;28;20376;-69
2022/01/01 00:21:20;;;;;;;59.05;33.15;;;;;;;14.30;58.55;101087.06;5075740;28;20045;-68
2022/01/01 00:23:46;;;;;;;56.92;33.25;;;;;;;13.77;60.03;101088.63;5074627;28;20075;-69
2022/01/01 00:26:14;;;;;;;51.60;31.77;;;;;;;14.13;59.22;101082.78;5074072;28;20075;-69
2022/01/01 00:28:41;;;;;;;38.25;27.38;;;;;;;14.46;57.84;101090.69;5074102;28;20056;-69
2022/01/01 00:31:07;;;;;;;43.70;29.83;;;;;;;13.52;61.06;101089.63;5072814;28;20119;-69
2022/01/01 00:33:34;;;;;;;49.72;33.97;;;;;;;14.11;59.61;101095.59;5073785;28;20059;-69
2022/01/01 00:36:00;;;;;;;47.88;36.17;;;;;;;14.18;59.21;101106.53;5072848;28;20074;-68
2022/01/01 00:38:27;;;;;;;46.63;30.55;;;;;;;13.68;60.44;101107.66;5074392;28;20201;-68
2022/01/01 00:40:54;;;;;;;42.38;30.02;;;;;;;14.01;59.82;101112.00;5074531;28;20041;-69
2022/01/01 00:43:20;;;;;;;51.67;30.98;;;;;;;14.34;58.60;101111.84;5071842;28;20127;-69
2022/01/01 00:45:47;;;;;;;45.30;31.88;;;;;;;14.04;59.69;101113.47;5074078;28;20048;-68
2022/01/01 00:48:13;;;;;;;46.65;27.23;;;;;;;13.57;61.12;101106.16;5072880;28;20053;-69
2022/01/01 00:50:40;;;;;;;40.25;28.63;;;;;;;14.29;58.70;101119.66;5072404;28;20464;-69
2022/01/01 00:53:06;;;;;;;46.83;30.27;;;;;;;14.29;58.98;101127.75;5073750;28;20123;-70
2022/01/01 00:55:33;;;;;;;46.50;30.95;;;;;;;13.83;60.31;101130.22;5073278;28;20055;-69
2022/01/01 00:58:00;;;;;;;43.83;30.50;;;;;;;14.19;59.05;101133.34;5072286;28;20123;-69
2022/01/01 01:00:27;;;;;;;54.15;32.67;;;;;;;14.44;58.28;101131.38;5068672;28;20048;-69
2022/01/01 01:02:53;;;;;;;49.60;31.83;;;;;;;14.65;57.71;101146.97;5073478;28;20128;-69
2022/01/01 01:05:20;;;;;;;47.63;32.63;;;;;;;14.93;56.93;101141.94;5074460;28;20032;-69
2022/01/01 01:07:46;;;;;;;52.13;33.85;;;;;;;14.77;57.21;101148.31;5074888;28;20049;-69
2022/01/01 01:10:13;;;;;;;54.90;32.60;;;;;;;14.49;58.37;101147.03;5074043;28;20056;-68
2022/01/01 01:12:46;;;;;;;69.57;42.40;;;;;;;14.24;59.07;101147.16;5073480;28;20404;-68
2022/01/01 01:15:17;;;;;;;51.80;34.97;;;;;;;14.26;59.13;101145.13;5073938;28;20060;-68
2022/01/01 01:17:46;;;;;;;54.57;35.67;;;;;;;14.28;58.40;101148.47;5072248;28;20072;-68
2022/01/01 01:20:13;;;;;;;55.65;34.80;;;;;;;14.20;58.87;101147.66;5072423;28;20075;-68
2022/01/01 01:22:40;;;;;;;51.22;33.67;;;;;;;14.65;57.94;101156.94;5071977;28;20465;-68
2022/01/01 01:25:08;;;;;;;52.00;32.63;;;;;;;14.60;57.95;101160.19;5073646;28;20095;-68
2022/01/01 01:27:35;;;;;;;45.72;29.88;;;;;;;14.32;58.91;101173.25;5072890;28;20040;-68
2022/01/01 01:30:08;;;;;;;45.05;28.40;;;;;;;14.93;56.93;101176.22;5073474;28;20132;-68
2022/01/01 01:32:36;;;;;;;39.90;26.27;;;;;;;14.47;58.16;101185.03;5073848;28;20470;-68
2022/01/01 01:35:04;;;;;;;40.70;26.70;;;;;;;14.11;59.21;101190.00;5073359;28;20485;-68
2022/01/01 01:37:31;;;;;;;47.08;26.88;;;;;;;14.96;56.99;101173.19;5073937;28;20083;-68
2022/01/01 01:39:58;;;;;;;36.22;25.17;;;;;;;14.63;57.50;101178.69;5072324;28;20120;-69
2022/01/01 01:42:26;;;;;;;36.20;23.63;;;;;;;14.19;59.48;101186.47;5072437;28;20055;-69
2022/01/01 01:44:54;;;;;;;35.08;23.17;;;;;;;14.33;58.50;101195.72;5073753;28;20056;-69
2022/01/01 01:47:29;;;;;;;38.85;23.38;;;;;;;14.28;58.94;101199.75;5073878;28;20084;-69
2022/01/01 01:50:00;;;;;;;35.92;22.60;;;;;;;14.20;59.54;101198.94;5072378;28;20067;-69
2022/01/01 01:52:32;;;;;;;39.70;23.00;;;;;;;14.41;58.90;101201.91;5071436;28;20464;-68
2022/01/01 01:54:59;;;;;;;40.67;23.25;;;;;;;14.22;59.40;101205.88;5076474;28;20131;-68
2022/01/01 01:57:27;;;;;;;39.58;24.17;;;;;;;14.20;59.56;101205.19;5078155;28;20041;-68
2022/01/01 01:59:54;;;;;;;36.58;21.13;;;;;;;14.39;58.47;101208.50;5077152;28;20070;-68
2022/01/01 02:02:20;;;;;;;36.15;20.98;;;;;;;14.22;59.56;101202.28;5077523;28;20048;-68
2022/01/01 02:04:47;;;;;;;35.85;21.40;;;;;;;14.44;58.82;101217.75;5077964;28;20067;-68
2022/01/01 02:07:23;;;;;;;29.80;20.10;;;;;;;14.38;58.56;101209.50;5076613;28;20143;-68
2022/01/01 02:09:49;;;;;;;30.33;19.83;;;;;;;13.91;60.63;101210.28;5078038;28;20126;-68
2022/01/01 02:12:16;;;;;;;40.50;21.00;;;;;;;14.07;59.99;101215.66;5077300;28;20127;-68
2022/01/01 02:17:24;;;;;;;36.45;19.92;;;;;;;14.72;58.03;101225.47;5076101;28;20064;-68
2022/01/01 02:19:59;;;;;;;36.10;20.52;;;;;;;14.32;58.76;101223.69;5075458;28;20068;-68
2022/01/01 02:22:34;;;;;;;33.63;19.63;;;;;;;14.44;58.77;101225.03;5076130;28;20049;-68
2022/01/01 02:25:00;;;;;;;38.25;20.55;;;;;;;14.42;58.69;101229.75;5075538;28;20572;-69
2022/01/01 02:27:27;;;;;;;32.08;19.52;;;;;;;14.86;57.45;101232.81;5077351;28;20139;-69
2022/01/01 02:29:53;;;;;;;32.90;19.83;;;;;;;14.89;57.01;101229.78;5075672;28;20523;-69
2022/01/01 02:32:20;;;;;;;36.95;20.60;;;;;;;14.56;58.63;101231.72;5076878;28;20047;-69
2022/01/01 02:34:46;;;;;;;33.60;19.80;;;;;;;14.65;57.63;101230.69;5078003;28;20045;-68
2022/01/01 02:37:13;;;;;;;32.78;19.13;;;;;;;14.89;57.01;101234.34;5077059;28;20540;-68
2022/01/01 02:39:40;;;;;;;29.20;19.55;;;;;;;14.30;59.16;101238.22;5076744;28;20169;-68
2022/01/01 02:42:08;;;;;;;35.00;17.95;;;;;;;14.52;57.98;101241.19;5075918;28;20079;-68
2022/01/01 02:44:34;;;;;;;30.92;18.58;;;;;;;14.48;58.20;101239.84;5059151;28;20059;-68
2022/01/01 02:47:01;;;;;;;31.30;19.98;;;;;;;15.06;56.56;101238.63;5076458;28;20079;-68
2022/01/01 02:49:27;;;;;;;37.53;20.55;;;;;;;14.89;57.08;101237.88;5077398;28;20048;-68
2022/01/01 02:51:54;;;;;;;33.53;19.58;;;;;;;14.99;57.08;101243.06;5076584;28;20119;-68
2022/01/01 02:54:20;;;;;;;37.00;19.45;;;;;;;14.98;56.55;101239.53;5075936;28;20135;-68
2022/01/01 02:56:48;;;;;;;32.38;18.92;;;;;;;15.21;56.50;101231.44;5077174;28;20132;-69
2022/01/01 02:59:15;;;;;;;34.47;17.92;;;;;;;14.93;56.50;101230.25;5076735;28;20032;-68
2022/01/01 03:01:42;;;;;;;30.65;17.30;;;;;;;14.43;58.44;101240.38;5075700;28;20116;-68
2022/01/01 03:04:08;;;;;;;36.30;18.60;;;;;;;14.62;57.19;101243.69;5075136;28;20139;-68
2022/01/01 03:06:35;;;;;;;31.35;18.63;;;;;;;14.54;57.83;101242.72;5074008;28;20132;-68
2022/01/01 03:09:02;;;;;;;30.95;17.73;;;;;;;15.11;56.08;101249.75;5075490;28;20044;-68
2022/01/01 03:11:29;;;;;;;33.38;17.85;;;;;;;14.91;56.73;101248.50;5075838;28;20476;-68
2022/01/01 03:13:55;;;;;;;32.88;17.00;;;;;;;14.63;57.33;101254.31;5074735;28;20163;-68
2022/01/01 03:16:21;;;;;;;30.50;15.90;;;;;;;14.68;57.35;101261.91;5074688;28;20403;-68
2022/01/01 03:18:48;;;;;;;30.02;16.13;;;;;;;14.73;57.09;101260.38;5075240;28;20071;-68
2022/01/01 03:21:14;;;;;;;33.53;16.25;;;;;;;14.76;56.49;101270.00;5076545;28;20125;-68
2022/01/01 03:23:41;;;;;;;35.72;17.33;;;;;;;14.98;56.41;101263.84;5076134;28;20108;-68
2022/01/01 03:26:07;;;;;;;33.58;15.20;;;;;;;14.71;56.92;101270.53;5075262;28;20480;-68
2022/01/01 03:28:34;;;;;;;31.25;16.02;;;;;;;14.45;57.43;101273.44;5075386;28;20075;-68
2022/01/01 03:31:00;;;;;;;27.50;14.45;;;;;;;14.83;56.06;101276.38;5074812;28;20127;-68
2022/01/01 03:33:27;;;;;;;33.00;15.10;;;;;;;14.45;57.23;101284.22;5075485;28;20047;-68
2022/01/01 03:35:53;;;;;;;28.63;14.52;;;;;;;14.03;58.69;101288.00;5076726;28;20460;-68
2022/01/01 03:38:20;;;;;;;26.17;15.23;;;;;;;14.96;56.41;101282.09;5075953;28;20115;-68
2022/01/01 03:40:47;;;;;;;30.08;15.23;;;;;;;14.90;56.10;101287.34;5068768;28;20068;-68
2022/01/01 03:43:13;;;;;;;32.38;14.63;;;;;;;14.94;55.71;101294.91;5074647;28;20064;-68
2022/01/01 03:45:40;;;;;;;25.60;13.52;;;;;;;15.28;54.98;101282.09;5075424;28;20048;-68
2022/01/01 03:48:07;;;;;;;28.48;14.20;;;;;;;14.88;56.30;101278.59;5074924;28;20044;-68
2022/01/01 03:50:34;;;;;;;40.22;13.80;;;;;;;14.51;56.96;101283.56;5074763;28;20069;-68
2022/01/01 03:53:00;;;;;;;30.70;14.43;;;;;;;14.33;57.75;101280.22;5074597;28;20127;-68
2022/01/01 03:55:27;;;;;;;32.03;13.95;;;;;;;15.34;54.92;101290.34;5074968;28;20064;-68
2022/01/01 03:57:54;;;;;;;29.40;14.18;;;;;;;14.80;56.14;101281.31;5071290;28;20078;-68
2022/01/01 04:00:20;;;;;;;29.02;14.63;;;;;;;15.43;54.42;101280.31;5076726;28;20143;-68
2022/01/01 04:02:47;;;;;;;26.30;13.85;;;;;;;15.17;54.72;101276.06;5076007;28;20045;-68
2022/01/01 04:05:13;;;;;;;32.63;13.30;;;;;;;14.48;56.77;101280.34;5075308;28;20075;-68
2022/01/01 04:07:40;;;;;;;31.35;13.93;;;;;;;14.85;55.92;101287.03;5075318;28;20075;-68
2022/01/01 04:10:07;;;;;;;28.88;14.18;;;;;;;14.45;56.95;101291.50;5075918;28;20143;-68
2022/01/01 04:12:33;;;;;;;33.60;14.32;;;;;;;15.03;55.83;101300.31;5074746;28;20072;-68
2022/01/01 04:15:02;;;;;;;34.03;14.80;;;;;;;14.76;56.83;101303.25;5075837;28;20488;-68
2022/01/01 04:17:28;;;;;;;29.13;14.32;;;;;;;14.87;55.54;101310.13;5073542;28;20052;-68
2022/01/01 04:19:54;;;;;;;28.23;13.88;;;;;;;14.80;55.66;101311.84;5075458;28;20127;-68
2022/01/01 04:22:21;;;;;;;34.20;13.20;;;;;;;14.78;56.03;101313.91;5075338;28;20075;-68
2022/01/01 04:24:48;;;;;;;30.17;14.30;;;;;;;15.70;53.89;101316.84;5074200;28;20075;-68
2022/01/01 04:27:14;;;;;;;38.08;14.18;;;;;;;14.90;55.01;101330.56;5074824;28;20108;-68
2022/01/01 04:29:41;;;;;;;28.08;14.05;;;;;;;14.74;56.46;101323.38;5075135;28;20083;-68
2022/01/01 04:32:09;;;;;;;30.65;14.13;;;;;;;13.81;58.88;101312.97;5073642;28;20449;-68
2022/01/01 04:34:35;;;;;;;32.50;15.50;;;;;;;14.18;58.45;101312.44;5073232;28;20052;-68
2022/01/01 04:37:08;;;;;;;35.80;16.23;;;;;;;14.88;55.96;101329.91;5074198;28;20050;-68
2022/01/01 04:39:34;;;;;;;30.58;14.98;;;;;;;15.03;55.56;101324.63;5075439;28;20048;-68
2022/01/01 04:42:00;;;;;;;32.05;15.93;;;;;;;14.68;56.43;101321.31;5075075;28;20485;-68
2022/01/01 04:44:27;;;;;;;33.25;14.63;;;;;;;15.17;55.04;101303.09;5075507;28;20075;-68
2022/01/01 04:46:55;;;;;;;33.17;16.35;;;;;;;14.89;55.55;101313.50;5075017;28;20131;-68
2022/01/01 04:49:22;;;;;;;26.92;14.45;;;;;;;14.89;55.49;101313.50;5075078;28;20136;-68
2022/01/01 04:51:49;;;;;;;35.17;17.00;;;;;;;15.09;55.08;101316.66;5075093;28;20123;-68
2022/01/01 04:54:16;;;;;;;37.10;15.85;;;;;;;15.11;54.70;101319.16;5075179;28;20123;-68
2022/01/01 04:56:46;;;;;;;36.05;16.90;;;;;;;14.47;56.66;101324.56;5074357;28;20476;-68
2022/01/01 04:59:13;;;;;;;35.78;14.68;;;;;;;13.79;58.78;101331.16;5073375;28;20076;-68
2022/01/01 05:01:40;;;;;;;34.60;15.98;;;;;;;13.76;58.91;101331.47;5074916;28;20090;-68
2022/01/01 05:04:07;;;;;;;41.90;17.75;;;;;;;14.58;56.82;101332.31;5073681;28;20527;-68
2022/01/01 05:06:34;;;;;;;40.35;16.75;;;;;;;14.52;56.60;101325.72;5073827;28;20127;-68
2022/01/01 05:09:01;;;;;;;39.28;16.50;;;;;;;14.56;56.60;101323.53;5074349;28;20064;-68
2022/01/01 05:11:28;;;;;;;35.70;16.52;;;;;;;14.03;58.06;101333.03;5055911;28;20050;-68
2022/01/01 05:13:54;;;;;;;38.88;16.65;;;;;;;14.32;57.38;101332.50;5063371;28;20071;-68
2022/01/01 05:16:21;;;;;;;32.92;16.15;;;;;;;14.23;57.99;101333.53;5072824;28;20424;-68
2022/01/01 05:18:48;;;;;;;36.03;16.73;;;;;;;14.03;58.15;101339.25;5074377;28;20455;-69
2022/01/01 05:21:14;;;;;;;39.00;17.50;;;;;;;13.96;58.49;101340.94;5073152;28;20054;-68
2022/01/01 05:23:41;;;;;;;40.35;17.80;;;;;;;14.20;58.01;101350.06;5072165;28;20139;-68
2022/01/01 05:26:07;;;;;;;40.92;18.27;;;;;;;14.17;57.79;101353.94;5072116;28;20119;-68
2022/01/01 05:28:33;;;;;;;40.85;17.83;;;;;;;13.97;58.68;101360.66;5072257;28;20131;-68
2022/01/01 05:31:00;;;;;;;41.35;17.63;;;;;;;13.97;58.39;101355.25;5073208;28;20040;-68
2022/01/01 05:33:26;;;;;;;35.80;17.75;;;;;;;14.13;57.97;101354.44;5071725;28;20056;-68
2022/01/01 05:35:53;;;;;;;47.92;18.70;;;;;;;14.50;56.89;101364.72;5071997;28;20131;-68
2022/01/01 05:38:19;;;;;;;39.72;17.50;;;;;;;14.44;56.98;101360.00;5072714;28;20068;-68
2022/01/01 05:40:53;;;;;;;34.70;16.98;;;;;;;13.77;58.95;101357.44;5073985;28;20388;-69
2022/01/01 05:43:20;;;;;;;44.75;18.35;;;;;;;13.47;59.05;101366.94;5074607;28;20546;-69
2022/01/01 05:45:46;;;;;;;40.28;16.77;;;;;;;13.99;58.00;101369.44;5074787;28;20041;-69
2022/01/01 05:48:13;;;;;;;39.47;17.08;;;;;;;13.79;58.55;101372.44;5074112;28;20160;-68
2022/01/01 05:50:40;;;;;;;39.95;18.02;;;;;;;13.80;58.53;101365.19;5073995;28;20045;-68
2022/01/01 05:53:06;;;;;;;42.13;18.15;;;;;;;13.57;58.71;101368.47;5073461;28;20120;-68
2022/01/01 05:55:33;;;;;;;43.60;18.67;;;;;;;14.06;57.97;101387.50;5073099;28;20053;-68
2022/01/01 05:58:00;;;;;;;36.72;16.80;;;;;;;13.83;57.99;101375.66;5072022;28;20040;-68
2022/01/01 06:00:27;;;;;;;35.65;16.92;;;;;;;14.12;57.72;101380.59;5072583;28;20076;-68
2022/01/01 06:02:56;;;;;;;43.38;17.25;;;;;;;13.93;57.46;101384.44;5072266;28;20511;-68
2022/01/01 06:05:23;;;;;;;41.50;16.67;;;;;;;14.04;57.55;101385.97;5072895;28;20053;-68
2022/01/01 06:07:49;;;;;;;36.35;16.27;;;;;;;14.05;57.72;101390.38;5065260;28;20044;-68
2022/01/01 06:10:16;;;;;;;35.95;17.25;;;;;;;13.99;57.67;101385.63;5072069;28;20167;-68
2022/01/01 06:12:43;;;;;;;45.60;19.10;;;;;;;13.93;57.65;101391.69;5072831;28;20052;-68
2022/01/01 06:15:09;;;;;;;34.67;16.92;;;;;;;14.10;56.64;101388.00;5074103;28;20127;-68
2022/01/01 06:17:36;;;;;;;36.05;16.48;;;;;;;14.29;56.61;101390.38;5073306;28;20048;-68
2022/01/01 06:20:02;;;;;;;37.08;16.73;;;;;;;13.66;58.44;101408.94;5073193;28;20481;-68
2022/01/01 06:22:29;;;;;;;32.15;17.02;;;;;;;14.26;57.12;101401.50;5073489;28;20040;-68
2022/01/01 06:24:56;;;;;;;39.60;17.42;;;;;;;13.82;57.88;101404.47;5073748;28;20404;-68
2022/01/01 06:27:22;;;;;;;38.00;16.15;;;;;;;13.64;58.65;101414.50;5073626;28;20051;-68
2022/01/01 06:29:50;;;;;;;37.08;17.58;;;;;;;13.97;58.00;101410.06;5073768;28;20048;-68
2022/01/01 06:32:16;;;;;;;39.20;17.25;;;;;;;14.43;56.32;101415.84;5072258;28;20513;-68
2022/01/01 06:34:43;;;;;;;35.30;17.00;;;;;;;14.18;56.81;101412.28;5073764;28;20049;-68
2022/01/01 06:37:09;;;;;;;40.45;17.10;;;;;;;13.71;58.14;101412.84;5072222;28;20051;-68
2022/01/01 06:39:36;;;;;;;32.75;16.67;;;;;;;13.83;57.94;101416.94;5073563;28;20139;-68
2022/01/01 06:42:03;;;;;;;41.83;17.17;;;;;;;13.34;59.15;101414.03;5075532;28;20135;-68
2022/01/01 06:44:29;;;;;;;33.40;16.15;;;;;;;14.07;57.19;101412.59;5076462;28;20076;-69
2022/01/01 06:46:56;;;;;;;38.53;17.45;;;;;;;14.23;56.43;101420.72;5077399;28;20044;-69
2022/01/01 06:49:22;;;;;;;41.58;17.08;;;;;;;13.90;57.27;101417.13;5075979;28;20127;-69
2022/01/01 06:51:49;;;;;;;38.28;17.33;;;;;;;13.54;58.54;101428.13;5075679;28;20075;-68
2022/01/01 06:54:15;;;;;;;43.28;17.05;;;;;;;13.58;58.53;101425.94;5077425;28;20115;-68
2022/01/01 06:56:42;;;;;;;39.22;16.88;;;;;;;13.75;57.78;101438.47;5076248;28;20135;-68
2022/01/01 06:59:09;;;;;;;38.95;15.98;;;;;;;13.43;58.99;101438.34;5076222;28;20504;-68
2022/01/01 07:01:36;;;;;;;41.33;16.77;;;;;;;14.09;56.95;101434.88;5077083;28;20052;-68
2022/01/01 07:04:04;;;;;;;39.13;15.88;;;;;;;13.90;56.79;101448.66;5072740;28;20044;-68
2022/01/01 07:06:31;;;;;;;41.22;15.95;;;;;;;14.12;56.59;101442.66;5076421;28;20068;-68
2022/01/01 07:08:57;;;;;;;40.75;16.58;;;;;;;14.08;56.34;101441.31;5075135;28;20536;-68
2022/01/01 07:11:24;;;;;;;40.53;15.38;;;;;;;13.71;57.45;101447.91;5075953;28;20127;-68
2022/01/01 07:13:50;;;;;;;39.58;16.27;;;;;;;13.76;57.56;101450.13;5074897;28;20075;-68
2022/01/01 07:16:17;;;;;;;41.60;16.15;;;;;;;13.90;57.66;101451.34;5075514;28;20131;-68
2022/01/01 07:18:44;;;;;;;42.42;16.23;;;;;;;13.79;57.48;101456.03;5076011;28;20059;-68
2022/01/01 07:21:10;;;;;;;40.15;16.15;;;;;;;14.25;56.29;101461.03;5075264;28;20128;-68
2022/01/01 07:23:37;;;;;;;40.30;15.77;;;;;;;14.38;55.77;101460.56;5074840;28;20070;-68
2022/01/01 07:26:03;;;;;;;36.42;16.55;;;;;;;14.01;56.71;101472.63;5061654;28;20054;-68
2022/01/01 07:28:30;;;;;;;37.40;15.35;;;;;;;14.27;56.03;101462.56;5072354;28;20481;-69
2022/01/01 07:30:56;;;;;;;44.25;17.33;;;;;;;14.09;56.56;101466.44;5075595;28;20131;-69
2022/01/01 07:33:23;;;;;;;40.83;18.08;;;;;;;13.48;57.99;101473.75;5073752;28;20457;-69
2022/01/01 07:35:49;;;;;;;38.33;16.65;;;;;;;14.19;57.01;101473.34;5074262;28;20071;-69
2022/01/01 07:38:15;;;;;;;39.15;16.90;;;;;;;14.04;56.43;101486.63;5075439;28;20132;-69
2022/01/01 07:40:42;;;;;;;37.95;16.13;;;;;;;13.91;57.13;101485.41;5075447;28;20080;-69
2022/01/01 07:43:12;;;;;;;46.58;16.48;;;;;;;13.68;57.84;101496.75;5075525;28;20495;-68
2022/01/01 07:45:40;;;;;;;39.20;16.20;;;;;;;14.17;56.20;101496.94;5057740;28;20052;-68
2022/01/01 07:48:07;;;;;;;35.15;15.55;;;;;;;14.23;56.27;101495.47;5075079;28;20045;-68
2022/01/01 07:50:35;;;;;;;41.72;16.10;;;;;;;14.30;56.37;101500.03;5073898;28;20457;-68
2022/01/01 07:53:02;;;;;;;40.13;15.57;;;;;;;13.65;58.07;101502.47;5074473;28;20104;-68
2022/01/01 07:55:29;;;;;;;38.08;15.82;;;;;;;14.32;56.23;101499.00;5075863;28;20053;-69
2022/01/01 07:57:55;;;;;;;48.97;17.15;;;;;;;13.92;57.74;101508.69;5075528;28;20120;-69
2022/01/01 08:00:22;;;;;;;41.00;17.02;;;;;;;13.94;57.13;101515.63;5074650;28;20144;-69
2022/01/01 08:02:48;;;;;;;46.63;16.88;;;;;;;14.29;56.27;101517.25;5075370;28;20481;-69
2022/01/01 08:05:16;;;;;;;40.35;15.93;;;;;;;14.52;55.40;101517.41;5075093;28;20115;-69
2022/01/01 08:07:44;;;;;;;36.55;16.33;;;;;;;13.96;56.84;101521.69;5073836;28;20074;-69
2022/01/01 08:10:31;;;;;;;39.72;16.42;;;;;;;14.34;55.52;101518.59;5073999;28;20048;-69
2022/01/01 08:12:59;;;;;;;46.53;17.65;;;;;;;13.15;58.88;101516.69;5075974;28;20049;-69
2022/01/01 08:15:25;;;;;;;50.05;19.13;;;;;;;13.46;58.45;101513.50;5074747;28;20053;-69
2022/01/01 08:17:52;;;;;;;43.20;16.10;;;;;;;14.10;56.61;101504.03;5073984;28;20071;-69
2022/01/01 08:20:19;;;;;;;43.47;16.95;;;;;;;14.77;55.01;101520.16;5075138;28;20132;-69
2022/01/01 08:22:45;;;;;;;37.85;15.65;;;;;;;14.32;55.79;101504.41;5074608;28;20048;-69
2022/01/01 08:25:12;;;;;;;43.45;16.77;;;;;;;14.75;55.00;101514.13;5073243;28;20453;-69
2022/01/01 08:27:38;;;;;;;45.03;16.98;;;;;;;15.22;53.28;101513.38;5073276;28;20048;-69
2022/01/01 08:30:05;;;;;;;38.78;16.17;;;;;;;14.57;54.74;101525.03;5073933;28;20422;-69
2022/01/01 08:32:32;;;;;;;40.13;15.35;;;;;;;14.97;54.42;101520.69;5073848;28;20072;-69
2022/01/01 08:34:58;;;;;;;43.38;15.98;;;;;;;14.95;53.98;101530.84;5073018;28;20071;-68
2022/01/01 08:37:25;;;;;;;34.53;15.48;;;;;;;14.70;54.97;101536.22;5073508;28;20074;-68
2022/01/01 08:39:51;;;;;;;38.58;15.88;;;;;;;14.83;55.24;101530.31;5073870;28;20105;-68
2022/01/01 08:42:18;;;;;;;39.38;15.80;;;;;;;14.80;54.36;101537.91;5072707;28;20048;-68
2022/01/01 08:44:44;;;;;;;35.63;15.52;;;;;;;14.54;54.94;101542.41;5072361;28;20448;-69
2022/01/01 08:47:11;;;;;;;44.25;16.58;;;;;;;14.77;54.74;101537.25;5074070;28;20083;-69
2022/01/01 08:49:37;;;;;;;43.67;16.02;;;;;;;14.11;56.71;101545.34;5073886;28;20507;-69
2022/01/01 08:52:04;;;;;;;46.25;16.83;;;;;;;14.77;54.33;101549.88;5074025;28;20123;-69
2022/01/01 08:54:30;;;;;;;42.55;16.20;;;;;;;15.07;53.99;101548.38;5057258;28;20059;-69
2022/01/01 08:56:57;;;;;;;49.15;16.02;;;;;;;15.08;53.19;101547.34;5073410;28;20054;-69
2022/01/01 08:59:29;;;;;;;38.97;15.88;;;;;;;14.99;53.99;101553.81;5056582;28;20106;-68
2022/01/01 09:01:55;;;;;;;40.75;16.50;;;;;;;14.67;54.44;101557.28;5056793;28;20072;-68
2022/01/01 09:04:22;;;;;;;51.88;16.35;;;;;;;14.94;53.79;101558.84;5073996;28;20048;-69
2022/01/01 09:06:49;;;;;;;44.35;17.02;;;;;;;14.69;54.77;101564.19;5074555;28;20068;-69
2022/01/01 09:09:16;;;;;;;39.63;15.73;;;;;;;14.47;55.40;101567.56;5073603;28;20044;-69
2022/01/01 09:11:43;;;;;;;41.20;16.05;;;;;;;14.73;54.70;101573.69;5072475;28;20058;-68
2022/01/01 09:14:10;;;;;;;38.45;16.33;;;;;;;14.29;56.14;101586.56;5072856;28;20060;-68
2022/01/01 09:16:36;;;;;;;44.58;16.92;;;;;;;14.45;55.68;101574.97;5073128;28;20044;-69
2022/01/01 09:19:05;;;;;;;46.45;18.45;;;;;;;14.60;55.00;101584.13;5071256;28;20068;-69
2022/01/01 09:21:31;;;;;;;45.20;18.60;;;;;;;14.63;55.21;101594.56;5072690;28;20477;-69
2022/01/01 09:23:58;;;;;;;39.80;15.90;;;;;;;14.34;56.26;101591.47;5072630;28;20075;-69
2022/01/01 09:26:26;;;;;;;39.72;16.15;;;;;;;14.23;56.00;101590.75;5073267;28;20521;-69
2022/01/01 09:28:52;;;;;;;38.00;15.77;;;;;;;14.93;53.92;101590.44;5073393;28;20040;-69
2022/01/01 09:31:19;;;;;;;46.83;17.48;;;;;;;15.16;53.64;101606.84;5071932;28;20146;-69
2022/01/01 09:33:45;;;;;;;37.13;16.63;;;;;;;15.17;53.43;101604.97;5073181;28;20052;-69
2022/01/01 09:36:14;;;;;;;36.55;16.38;;;;;;;14.44;55.26;101602.97;5073848;28;20131;-69
2022/01/01 09:38:42;;;;;;;42.75;16.90;;;;;;;14.53;55.23;101615.47;5073654;28;20075;-69
2022/01/01 09:41:09;;;;;;;44.22;17.77;;;;;;;14.04;56.26;101621.53;5055754;28;20063;-69
2022/01/01 09:43:36;;;;;;;35.85;16.63;;;;;;;14.21;55.94;101619.75;5072741;28;20078;-69
2022/01/01 09:46:03;;;;;;;43.75;16.48;;;;;;;14.40;55.31;101615.13;5071672;28;20052;-69
2022/01/01 09:48:30;;;;;;;44.80;17.08;;;;;;;14.84;54.34;101620.28;5073462;28;20100;-69
2022/01/01 09:51:02;;;;;;;39.22;16.67;;;;;;;14.75;53.94;101627.56;5077191;28;20124;-69
2022/01/01 09:53:30;;;;;;;41.25;17.30;;;;;;;14.62;54.95;101628.00;5077558;28;20052;-69
2022/01/01 09:55:58;;;;;;;41.00;16.33;;;;;;;14.48;55.18;101629.47;5075565;28;20068;-69
2022/01/01 09:58:27;;;;;;;43.17;16.80;;;;;;;14.61;54.94;101631.72;5073515;28;20108;-69
2022/01/01 10:00:54;;;;;;;38.60;17.70;;;;;;;14.73;54.89;101633.09;5056827;28;20048;-69
2022/01/01 10:03:34;;;;;;;41.42;16.88;;;;;;;14.74;54.81;101632.13;5074412;28;20064;-69
2022/01/01 10:06:21;;;;;;;50.55;18.33;;;;;;;14.71;54.58;101640.56;5074368;28;20054;-69
2022/01/01 10:08:55;;;;;;;47.90;18.73;;;;;;;14.47;55.15;101637.75;5073504;28;20048;-69
2022/01/01 10:11:23;;;;;;;53.80;18.55;;;;;;;14.21;55.99;101635.94;5072052;28;20068;-69
2022/01/01 10:13:50;;;;;;;39.55;16.85;;;;;;;14.52;54.86;101627.28;5072077;28;20472;-69
2022/01/01 10:16:17;;;;;;;41.90;17.25;;;;;;;15.03;54.25;101628.09;5076664;28;20123;-69
2022/01/01 10:18:47;;;;;;;48.40;18.75;;;;;;;15.08;53.66;101630.28;5059061;28;20136;-69
2022/01/01 10:21:16;;;;;;;45.47;18.70;;;;;;;15.23;53.70;101636.75;5076143;28;20143;-69
2022/01/01 10:23:46;;;;;;;54.78;17.85;;;;;;;15.64;52.16;101637.59;5076433;28;20094;-69
2022/01/01 10:29:23;;;;;;;49.70;20.20;;;;;;;14.83;54.19;101638.38;5077116;28;20123;-69
2022/01/01 10:32:08;;;;;;;48.22;18.48;;;;;;;15.11;53.93;101633.50;5076803;28;20070;-69
2022/01/01 10:34:47;;;;;;;40.85;17.00;;;;;;;15.32;53.14;101637.56;5074048;28;20076;-69
2022/01/01 10:37:33;;;;;;;46.35;19.25;;;;;;;14.94;54.49;101635.34;5076900;28;20063;-69
2022/01/01 10:40:00;;;;;;;46.75;17.90;;;;;;;15.12;53.91;101637.91;5076921;28;20052;-69
2022/01/01 10:42:28;;;;;;;51.80;18.33;;;;;;;14.79;54.07;101634.31;5076212;28;20186;-69
2022/01/01 10:44:54;;;;;;;51.63;18.45;;;;;;;14.98;54.16;101646.66;5075769;28;20048;-69
2022/01/01 10:47:31;;;;;;;47.97;20.35;;;;;;;15.40;53.30;101640.28;5078674;28;20048;-69
2022/01/01 10:52:45;;;;;;;43.90;18.60;;;;;;;15.20;53.75;101656.84;5075114;28;20056;-69
2022/01/01 10:55:12;;;;;;;45.85;17.95;;;;;;;15.34;53.23;101646.38;5075281;28;20120;-68
2022/01/01 10:57:52;;;;;;;43.35;17.40;;;;;;;15.48;52.61;101653.78;5075123;28;20245;-69
2022/01/01 11:00:21;;;;;;;46.88;17.88;;;;;;;15.83;51.88;101644.47;5076853;28;20128;-69
2022/01/01 11:02:52;;;;;;;49.00;18.70;;;;;;;15.25;53.04;101645.50;5076174;28;20122;-69
2022/01/01 11:05:33;;;;;;;43.33;17.52;;;;;;;15.00;53.31;101648.19;5057948;28;20046;-69
2022/01/01 11:08:02;;;;;;;46.25;18.40;;;;;;;15.38;52.63;101637.75;5077128;28;20532;-69
2022/01/01 11:10:30;;;;;;;51.58;18.20;;;;;;;15.14;53.77;101638.56;5074480;28;20136;-69
2022/01/01 11:12:59;;;;;;;48.72;17.77;;;;;;;15.21;52.94;101631.47;5076220;28;20203;-69
2022/01/01 11:15:26;;;;;;;43.33;16.88;;;;;;;15.43;52.57;101629.97;5075062;28;20098;-69
2022/01/01 11:17:54;;;;;;;49.67;18.33;;;;;;;15.70;52.15;101630.63;5076604;28;20040;-69
2022/01/01 11:20:20;;;;;;;41.35;16.50;;;;;;;15.53;51.74;101639.75;5076063;28;20524;-69